Terminal Aerodrome Forecast
Issued by NWS

Current Version | Previous Version | Text Only | Print | Product List | Glossary On
Versions: 1 2 3 4 5 6 7 8 9 10 11 12 13 14 15 16 17 18 19 20
000
FTUS41 KRLX 220523
TAFCKB
TAF
KCKB 220523Z 2206/2306 VRB02KT P6SM VCSH BKN090
     FM221300 VRB02KT 5SM -SHRA BKN025
     FM221800 VRB03KT P6SM BKN025=

USA.gov is the U.S. government's official web portal to all federal, state and local government web resources and services.